Time;durP1;ratioP1;P1;durP2;ratioP2;P2;SDS_P1;SDS_P2;PMS_P1;PMS_P2;Temp;Humidity;BMP_temperature;BMP_pressure;BME280_temperature;BME280_humidity;BME280_pressure;Samples;Min_cycle;Max_cycle;Signal;HPM_P1;HPM_P2
2022/04/05 04:31:42;;;;;;;;;10.50;8.50;;;;;9.53;76.64;100939.19;1429720;25;46255;-77
2022/04/05 04:34:08;;;;;;;;;9.75;9.75;;;;;9.52;76.43;100926.72;5067132;28;45386;-77
2022/04/05 04:36:33;;;;;;;;;13.00;13.00;;;;;9.51;75.71;100908.91;5034100;28;45516;-78
2022/04/05 04:38:58;;;;;;;;;15.25;13.00;;;;;9.63;76.50;100932.50;5033242;28;46203;-78
2022/04/05 04:41:24;;;;;;;;;8.00;8.00;;;;;9.63;76.84;100929.84;5033778;28;45338;-78
2022/04/05 04:43:50;;;;;;;;;16.00;12.25;;;;;9.63;76.64;100919.13;5033585;28;45299;-77
2022/04/05 04:46:15;;;;;;;;;11.50;11.50;;;;;9.68;76.41;100919.84;5033815;28;45586;-78
2022/04/05 04:48:41;;;;;;;;;16.75;12.00;;;;;9.73;75.60;100924.06;5036094;28;45906;-77
2022/04/05 04:51:08;;;;;;;;;13.75;13.00;;;;;9.67;75.65;100908.25;5037144;28;45237;-78
2022/04/05 04:53:34;;;;;;;;;12.75;11.50;;;;;9.65;75.81;100910.13;5038990;28;45347;-76
2022/04/05 04:55:59;;;;;;;;;16.50;13.00;;;;;9.79;76.19;100931.84;5057096;28;45417;-79
2022/04/05 04:58:25;;;;;;;;;13.75;12.50;;;;;9.75;76.47;100922.22;5057731;28;45963;-77
2022/04/05 05:00:50;;;;;;;;;15.00;15.00;;;;;9.81;76.89;100919.28;5053517;28;45453;-79
2022/04/05 05:03:18;;;;;;;;;13.75;10.25;;;;;9.70;75.66;100897.41;5041052;28;45347;-80
2022/04/05 05:05:44;;;;;;;;;13.25;13.25;;;;;9.81;75.93;100921.09;5048969;28;45496;-79
2022/04/05 05:08:10;;;;;;;;;14.25;13.25;;;;;9.82;76.64;100922.84;5062403;28;46384;-77
2022/04/05 05:10:36;;;;;;;;;15.00;13.25;;;;;9.78;76.46;100915.88;5059428;28;45550;-75
2022/04/05 05:13:01;;;;;;;;;11.50;11.50;;;;;9.76;76.50;100921.28;5056628;28;45341;-75
2022/04/05 05:15:27;;;;;;;;;16.75;12.25;;;;;9.62;76.95;100915.59;5057018;28;45516;-76
2022/04/05 05:17:55;;;;;;;;;16.75;15.75;;;;;9.60;77.89;100916.59;5056325;28;46057;-81
2022/04/05 05:20:21;;;;;;;;;12.50;11.75;;;;;9.67;78.31;100923.44;5056737;28;45427;-82
2022/04/05 05:22:47;;;;;;;;;13.75;13.00;;;;;9.71;77.38;100925.06;5057909;28;45440;-75
2022/04/05 05:25:12;;;;;;;;;15.50;15.50;;;;;9.76;76.79;100912.38;5055728;28;45481;-79
2022/04/05 05:27:38;;;;;;;;;18.75;13.00;;;;;9.93;76.82;100925.09;5036903;28;45953;-77
2022/04/05 05:30:05;;;;;;;;;9.50;9.50;;;;;9.74;76.35;100893.69;5036478;28;45492;-80
2022/04/05 05:32:31;;;;;;;;;16.25;12.50;;;;;9.82;77.10;100925.50;5034915;28;45384;-75
2022/04/05 05:34:56;;;;;;;;;15.00;12.75;;;;;9.79;77.61;100925.63;5036509;28;45454;-77
2022/04/05 05:37:22;;;;;;;;;11.25;10.25;;;;;9.70;77.85;100918.81;5036261;28;45264;-78
2022/04/05 05:39:47;;;;;;;;;14.75;11.50;;;;;9.62;78.49;100931.63;5034759;28;45286;-77
2022/04/05 05:42:13;;;;;;;;;16.50;14.00;;;;;9.45;78.59;100901.97;5035340;28;45465;-78
2022/04/05 05:44:38;;;;;;;;;8.75;8.75;;;;;9.55;78.48;100891.78;5042944;28;45383;-79
2022/04/05 05:47:09;;;;;;;;;12.00;12.00;;;;;9.48;78.87;100891.16;5055556;28;45886;-79
2022/04/05 05:49:34;;;;;;;;;20.75;13.00;;;;;9.70;79.05;100907.25;5058955;28;45477;-78
2022/04/05 05:51:59;;;;;;;;;17.25;13.75;;;;;9.78;78.57;100918.56;5056601;28;45426;-78
2022/04/05 05:54:25;;;;;;;;;13.50;13.25;;;;;9.67;77.81;100892.19;5056928;28;45615;-81
2022/04/05 05:56:50;;;;;;;;;15.25;14.00;;;;;9.72;77.88;100905.38;5056715;28;45433;-80
2022/04/05 05:59:15;;;;;;;;;13.25;10.50;;;;;9.86;77.44;100924.47;5054990;28;45278;-80
2022/04/05 06:01:41;;;;;;;;;12.75;7.75;;;;;9.60;77.80;100890.69;5042229;28;45406;-80
2022/04/05 06:04:06;;;;;;;;;13.00;13.00;;;;;9.86;77.30;100932.50;5034927;28;45809;-81
2022/04/05 06:06:32;;;;;;;;;14.00;12.50;;;;;9.81;77.60;100926.44;5050596;28;46475;-80
2022/04/05 06:08:58;;;;;;;;;14.25;12.25;;;;;9.81;78.06;100932.66;5055719;28;45358;-78
2022/04/05 06:11:24;;;;;;;;;13.00;10.00;;;;;9.73;78.01;100917.84;5057036;28;45485;-76
2022/04/05 06:13:51;;;;;;;;;14.00;11.25;;;;;9.85;77.78;100939.66;5057752;28;45592;-80
2022/04/05 06:16:18;;;;;;;;;11.25;10.00;;;;;9.87;78.19;100937.78;5056188;28;45488;-77
2022/04/05 06:18:47;;;;;;;;;10.75;10.00;;;;;9.90;78.35;100946.63;5055543;28;45314;-77
2022/04/05 06:21:16;;;;;;;;;10.50;9.00;;;;;9.94;77.60;100938.44;5055652;28;45481;-79
2022/04/05 06:23:42;;;;;;;;;10.25;9.75;;;;;9.92;78.39;100929.56;5055304;28;45580;-83
2022/04/05 06:26:07;;;;;;;;;11.75;11.00;;;;;9.86;78.55;100930.69;5047085;28;46196;-81
2022/04/05 06:28:33;;;;;;;;;14.25;13.00;;;;;10.02;77.79;100952.38;5035507;28;45320;-77
2022/04/05 06:30:58;;;;;;;;;6.50;6.50;;;;;9.98;77.30;100928.44;5035449;28;45429;-78
2022/04/05 06:33:24;;;;;;;;;9.50;9.50;;;;;9.92;77.73;100917.97;5034860;28;45508;-77
2022/04/05 06:35:52;;;;;;;;;12.00;11.25;;;;;10.12;78.12;100966.28;5035200;28;45501;-79
2022/04/05 06:38:18;;;;;;;;;15.75;10.00;;;;;10.05;78.48;100962.06;5035278;28;45253;-80
2022/04/05 06:40:44;;;;;;;;;13.75;11.75;;;;;10.04;78.32;100965.69;5035343;28;45304;-78
2022/04/05 06:43:14;;;;;;;;;13.50;12.75;;;;;10.02;78.92;100964.91;5035595;28;45465;-77
2022/04/05 06:45:41;;;;;;;;;13.50;11.75;;;;;10.04;79.18;100966.56;5050892;28;47477;-78
2022/04/05 06:48:06;;;;;;;;;13.50;13.00;;;;;10.13;78.65;100971.53;5050605;28;45510;-77
2022/04/05 06:50:36;;;;;;;;;16.50;14.00;;;;;10.09;78.65;100956.56;5031719;28;45534;-79
2022/04/05 06:53:03;;;;;;;;;12.00;10.25;;;;;10.11;79.62;100961.84;5040800;28;45731;-79
2022/04/05 06:55:29;;;;;;;;;17.00;13.75;;;;;10.06;79.79;100962.00;5044221;28;45678;-79
2022/04/05 06:57:55;;;;;;;;;9.50;8.25;;;;;9.97;80.08;100959.72;5050108;28;45688;-78
2022/04/05 07:00:23;;;;;;;;;10.00;10.00;;;;;9.95;80.36;100942.84;5036517;28;45621;-76
2022/04/05 07:02:49;;;;;;;;;15.00;11.25;;;;;9.83;80.12;100928.13;5041844;28;45603;-77
2022/04/05 07:05:15;;;;;;;;;12.25;9.00;;;;;10.04;80.14;100957.66;5037758;28;46124;-77
2022/04/05 07:07:41;;;;;;;;;14.00;11.50;;;;;10.02;79.96;100949.69;5055099;28;45338;-77
2022/04/05 07:10:09;;;;;;;;;15.25;10.25;;;;;10.08;79.60;100964.63;5042144;28;45486;-77
2022/04/05 07:12:35;;;;;;;;;10.00;8.00;;;;;10.00;80.17;100959.59;5061497;28;46404;-77
2022/04/05 07:15:00;;;;;;;;;12.00;9.00;;;;;10.00;79.86;100956.03;5051773;28;46418;-78
2022/04/05 07:17:26;;;;;;;;;9.50;9.00;;;;;10.02;80.06;100947.03;5054880;28;45232;-78
2022/04/05 07:19:54;;;;;;;;;12.25;10.75;;;;;10.05;79.77;100938.84;5054557;28;45405;-77
2022/04/05 07:22:20;;;;;;;;;11.00;9.75;;;;;10.13;80.15;100954.59;5043016;28;45414;-77
2022/04/05 07:24:46;;;;;;;;;9.25;6.50;;;;;10.14;79.97;100929.56;5033343;28;45393;-77
2022/04/05 07:27:12;;;;;;;;;8.50;7.00;;;;;10.19;79.84;100932.97;5037949;28;45443;-77
2022/04/05 07:29:38;;;;;;;;;10.50;8.00;;;;;10.27;79.57;100951.41;5036670;28;45359;-76
2022/04/05 07:32:06;;;;;;;;;10.50;9.25;;;;;10.08;80.43;100930.69;5034782;28;46035;-78
2022/04/05 07:34:31;;;;;;;;;11.50;9.00;;;;;10.22;80.28;100943.53;5049276;28;47274;-78
2022/04/05 07:36:57;;;;;;;;;10.50;9.50;;;;;10.05;80.16;100919.22;5034403;28;45596;-77
2022/04/05 07:39:23;;;;;;;;;10.00;10.00;;;;;10.29;80.21;100938.81;5035379;28;45603;-77
2022/04/05 07:41:49;;;;;;;;;9.00;9.00;;;;;10.44;79.67;100949.78;5057278;28;46628;-77
2022/04/05 07:44:14;;;;;;;;;14.00;10.00;;;;;10.26;79.76;100914.81;5049325;28;46175;-78
2022/04/05 07:46:40;;;;;;;;;16.75;9.75;;;;;10.53;80.16;100945.84;5034238;28;45888;-78
2022/04/05 07:49:05;;;;;;;;;14.00;14.00;;;;;10.42;79.42;100921.28;5033930;28;45893;-77
2022/04/05 07:51:30;;;;;;;;;14.75;10.50;;;;;10.59;79.80;100959.84;5042938;28;45555;-77
2022/04/05 07:53:56;;;;;;;;;9.00;9.00;;;;;10.59;79.22;100946.44;5049293;28;48042;-78
2022/04/05 07:56:21;;;;;;;;;9.50;9.50;;;;;10.48;79.28;100924.56;5037879;28;45800;-77
2022/04/05 07:58:47;;;;;;;;;9.75;9.00;;;;;10.75;79.37;100951.13;5037260;28;45327;-78
2022/04/05 08:01:12;;;;;;;;;10.25;10.25;;;;;10.86;78.74;100941.69;5035616;28;45300;-78
2022/04/05 08:03:38;;;;;;;;;10.50;10.25;;;;;10.89;78.25;100937.97;5035207;28;45835;-77
2022/04/05 08:06:04;;;;;;;;;8.25;8.25;;;;;11.02;78.24;100951.75;5043067;28;45548;-79
2022/04/05 08:08:30;;;;;;;;;11.50;11.00;;;;;11.02;77.90;100938.31;5036872;28;45557;-78
2022/04/05 08:10:57;;;;;;;;;19.25;14.00;;;;;11.05;78.25;100943.56;5032148;28;45579;-78
2022/04/05 08:13:22;;;;;;;;;10.75;8.00;;;;;11.14;77.77;100945.84;5034074;28;45727;-78
2022/04/05 08:15:48;;;;;;;;;12.50;8.00;;;;;11.20;77.25;100956.28;5034254;28;45277;-78
2022/04/05 08:18:14;;;;;;;;;13.25;10.00;;;;;10.99;77.32;100928.59;5034744;28;45323;-77
2022/04/05 08:20:41;;;;;;;;;11.00;10.00;;;;;11.13;77.90;100963.75;5032315;28;45298;-78
2022/04/05 08:23:08;;;;;;;;;8.25;6.75;;;;;10.97;77.86;100943.91;5036991;28;46226;-79
2022/04/05 08:25:33;;;;;;;;;11.50;9.75;;;;;10.91;77.80;100944.16;5041618;28;45545;-77
2022/04/05 08:27:59;;;;;;;;;8.00;8.00;;;;;10.90;78.56;100953.13;5041051;28;45397;-79
2022/04/05 08:30:24;;;;;;;;;11.00;10.50;;;;;10.87;78.92;100953.28;5045375;28;45549;-79
2022/04/05 08:32:49;;;;;;;;;8.25;8.25;;;;;10.97;78.99;100974.25;5049784;28;45386;-78
2022/04/05 08:35:18;;;;;;;;;13.50;12.75;;;;;10.97;79.17;100976.94;5043232;28;45426;-78
2022/04/05 08:37:44;;;;;;;;;11.50;10.00;;;;;10.85;79.27;100961.41;5050744;28;45398;-79
2022/04/05 08:40:12;;;;;;;;;16.50;12.00;;;;;10.88;79.80;100968.47;5039884;28;45317;-78
2022/04/05 08:42:41;;;;;;;;;13.75;10.25;;;;;10.88;79.62;100973.81;5036827;28;45839;-78
2022/04/05 08:45:10;;;;;;;;;13.50;11.50;;;;;10.75;79.74;100922.50;5040794;28;45394;-78
2022/04/05 08:47:46;;;;;;;;;10.75;9.75;;;;;10.93;79.66;100955.69;5038884;28;45390;-77
2022/04/05 08:50:13;;;;;;;;;10.00;9.75;;;;;10.99;79.78;100969.72;5048949;28;45787;-76
2022/04/05 08:52:39;;;;;;;;;15.00;12.25;;;;;11.00;79.60;100957.16;5049235;28;45468;-76
2022/04/05 08:55:05;;;;;;;;;12.75;12.75;;;;;10.93;80.27;100953.88;5045982;28;45372;-74
2022/04/05 08:57:30;;;;;;;;;11.00;11.00;;;;;10.99;79.87;100968.84;5064829;28;45287;-77
2022/04/05 08:59:56;;;;;;;;;13.00;11.75;;;;;10.87;80.71;100954.16;5059556;28;46555;-75
2022/04/05 09:02:25;;;;;;;;;17.00;11.75;;;;;11.03;80.28;100959.72;5048426;28;45506;-75
2022/04/05 09:04:52;;;;;;;;;12.00;11.75;;;;;11.01;80.08;100958.91;5036983;28;45488;-75
2022/04/05 09:07:23;;;;;;;;;12.25;12.00;;;;;11.06;80.34;100958.72;5057038;28;45334;-78
2022/04/05 09:10:14;;;;;;;;;14.00;11.75;;;;;11.10;80.30;100963.88;5055358;28;47474;-76
2022/04/05 09:12:41;;;;;;;;;15.50;11.75;;;;;11.11;80.13;100962.94;5032684;28;45545;-78
2022/04/05 09:15:16;;;;;;;;;18.25;13.75;;;;;11.16;79.65;100960.91;5036500;28;45283;-77
2022/04/05 09:17:43;;;;;;;;;14.00;14.00;;;;;11.14;80.02;100956.56;5040024;28;45438;-76
2022/04/05 09:20:09;;;;;;;;;16.25;12.50;;;;;11.13;80.08;100960.19;5038777;28;45314;-78
2022/04/05 09:22:35;;;;;;;;;15.25;12.25;;;;;11.07;80.60;100957.75;5045512;28;46564;-76
2022/04/05 09:25:06;;;;;;;;;18.00;14.00;;;;;11.07;80.56;100955.06;5047640;28;45805;-76
2022/04/05 09:27:47;;;;;;;;;16.50;10.00;;;;;11.11;80.67;100960.25;5038439;28;46433;-77
2022/04/05 09:30:17;;;;;;;;;15.50;12.75;;;;;11.03;80.72;100946.31;5036317;28;45607;-76
2022/04/05 09:32:44;;;;;;;;;14.00;12.50;;;;;11.10;80.87;100946.91;5041717;28;45414;-78
2022/04/05 09:35:11;;;;;;;;;15.50;12.75;;;;;11.34;80.54;100962.75;5044674;28;45346;-75
2022/04/05 09:37:38;;;;;;;;;11.25;10.25;;;;;11.23;79.46;100934.66;5037989;28;45495;-76
2022/04/05 09:40:32;;;;;;;;;14.50;13.25;;;;;11.49;79.82;100963.00;5041316;28;45527;-76
2022/04/05 09:43:04;;;;;;;;;16.75;15.25;;;;;11.53;79.45;100970.84;5051065;28;47612;-80
2022/04/05 09:45:43;;;;;;;;;12.25;12.00;;;;;11.68;78.88;100972.81;5036641;28;45532;-80
2022/04/05 09:48:09;;;;;;;;;16.50;13.00;;;;;11.75;78.13;100973.44;5036024;28;45505;-78
2022/04/05 09:51:02;;;;;;;;;11.50;10.00;;;;;11.82;78.51;100969.53;5036327;28;45366;-78
2022/04/05 09:53:34;;;;;;;;;11.50;11.50;;;;;11.82;78.55;100979.41;5045065;28;46016;-77
2022/04/05 09:56:13;;;;;;;;;14.50;13.75;;;;;11.66;79.15;100968.44;5044432;28;45436;-80
2022/04/05 09:58:48;;;;;;;;;12.50;11.00;;;;;11.65;79.03;100947.94;5038532;28;45348;-78
2022/04/05 10:01:14;;;;;;;;;12.00;10.25;;;;;11.81;78.64;100948.13;5039462;28;45322;-77
2022/04/05 10:03:55;;;;;;;;;9.25;9.00;;;;;11.77;78.61;100960.81;5035901;28;46193;-78
2022/04/05 10:06:21;;;;;;;;;10.50;9.25;;;;;11.72;79.17;100950.25;5048808;28;45503;-76
2022/04/05 10:08:48;;;;;;;;;11.25;10.75;;;;;11.66;78.97;100950.53;5055942;28;45396;-76
2022/04/05 10:11:14;;;;;;;;;15.25;11.75;;;;;11.65;78.66;100932.66;5056885;28;45460;-78
2022/04/05 10:13:41;;;;;;;;;9.00;8.50;;;;;11.75;79.00;100942.06;5074317;28;46306;-77
2022/04/05 10:16:08;;;;;;;;;13.25;11.00;;;;;11.88;78.87;100958.50;5057172;28;45461;-78
2022/04/05 10:18:35;;;;;;;;;8.50;7.25;;;;;11.84;78.72;100954.19;5074624;28;45329;-76
2022/04/05 10:21:03;;;;;;;;;13.00;12.00;;;;;11.70;78.95;100925.28;5078184;28;45416;-76
2022/04/05 10:23:30;;;;;;;;;14.00;10.75;;;;;11.92;78.74;100948.44;5075752;28;45441;-74
2022/04/05 10:25:55;;;;;;;;;12.75;11.00;;;;;12.02;78.60;100960.50;5068885;28;45382;-75
2022/04/05 10:28:28;;;;;;;;;10.50;10.50;;;;;12.01;78.34;100954.25;5055790;28;45458;-76
2022/04/05 10:31:13;;;;;;;;;11.00;10.00;;;;;12.06;77.87;100959.44;5055321;28;45959;-76
2022/04/05 10:33:48;;;;;;;;;13.75;10.00;;;;;12.09;77.94;100964.63;5055128;28;46316;-76
2022/04/05 10:36:21;;;;;;;;;12.25;11.50;;;;;12.04;78.20;100950.56;5055121;28;45471;-77
2022/04/05 10:39:12;;;;;;;;;12.00;10.00;;;;;12.13;77.55;100950.97;5055443;28;45317;-79
2022/04/05 10:41:37;;;;;;;;;17.50;10.50;;;;;12.08;77.28;100966.44;5055695;28;45417;-72
2022/04/05 10:44:24;;;;;;;;;16.50;13.75;;;;;12.06;77.57;100962.09;5055820;28;45338;-79
2022/04/05 10:47:01;;;;;;;;;14.00;14.00;;;;;12.09;77.44;100957.44;5054937;28;45414;-75
2022/04/05 10:49:39;;;;;;;;;20.25;15.00;;;;;12.07;77.61;100962.03;5056087;28;45327;-76
2022/04/05 10:52:12;;;;;;;;;13.00;10.50;;;;;12.13;77.57;100968.91;5055111;28;45464;-77
2022/04/05 10:54:43;;;;;;;;;8.75;6.25;;;;;12.16;77.46;100965.22;5055266;28;45535;-76
2022/04/05 10:57:27;;;;;;;;;12.50;9.00;;;;;12.13;77.67;100952.78;5055222;28;45279;-75
2022/04/05 11:00:28;;;;;;;;;8.00;7.50;;;;;11.92;77.90;100945.75;5053623;28;45366;-76
2022/04/05 11:02:53;;;;;;;;;11.50;9.25;;;;;12.10;78.11;100945.75;5045998;28;45630;-75
2022/04/05 11:05:19;;;;;;;;;4.50;3.75;;;;;12.17;77.31;100943.63;5053748;28;46172;-76
2022/04/05 11:07:53;;;;;;;;;11.50;10.25;;;;;12.23;77.64;100954.09;5070667;28;45319;-78
2022/04/05 11:10:21;;;;;;;;;11.25;10.00;;;;;12.21;77.96;100947.91;5052777;28;45468;-78
2022/04/05 11:12:46;;;;;;;;;11.75;10.00;;;;;12.32;77.27;100959.03;5053672;28;45332;-75
2022/04/05 11:15:15;;;;;;;;;8.00;8.00;;;;;12.33;77.43;100933.00;5054570;28;46142;-75
2022/04/05 11:17:42;;;;;;;;;10.50;9.25;;;;;12.49;76.80;100948.28;5055087;28;45522;-79
2022/04/05 11:20:09;;;;;;;;;10.50;9.00;;;;;12.41;76.69;100937.06;5054716;28;45308;-76
2022/04/05 11:22:37;;;;;;;;;6.25;6.00;;;;;12.45;76.63;100949.38;5070483;28;46220;-78
2022/04/05 11:25:05;;;;;;;;;7.00;5.75;;;;;12.47;77.00;100946.63;5054440;28;46087;-77
2022/04/05 11:27:45;;;;;;;;;9.75;7.25;;;;;12.41;76.95;100938.88;5068609;28;45368;-76
2022/04/05 11:33:06;;;;;;;;;0.00;0.00;;;;;12.46;76.83;100944.88;5074780;28;45483;-76
2022/04/05 11:35:34;;;;;;;;;10.25;10.25;;;;;12.51;76.72;100932.06;5074824;28;45350;-76
2022/04/05 11:38:00;;;;;;;;;11.50;9.25;;;;;12.62;76.40;100936.88;5074882;28;45315;-76
2022/04/05 11:40:25;;;;;;;;;9.00;9.00;;;;;12.72;75.81;100935.47;5074830;28;45353;-79
2022/04/05 11:42:52;;;;;;;;;14.75;13.50;;;;;12.65;75.97;100936.75;5074622;28;45288;-77
2022/04/05 11:45:19;;;;;;;;;11.25;10.00;;;;;12.65;76.33;100932.22;5074753;28;46277;-78
2022/04/05 11:47:52;;;;;;;;;11.00;9.50;;;;;12.44;76.15;100909.13;5074896;28;45418;-78
2022/04/05 11:50:19;;;;;;;;;10.00;9.00;;;;;12.58;76.38;100935.31;5074922;28;45340;-78
2022/04/05 11:52:44;;;;;;;;;9.25;8.00;;;;;12.62;76.43;100931.50;5073238;28;45913;-77
2022/04/05 11:58:03;;;;;;;;;4.50;4.00;;;;;12.58;76.53;100940.69;5069778;28;45486;-78
2022/04/05 12:00:28;;;;;;;;;11.00;10.50;;;;;12.56;76.57;100921.94;5075675;28;45305;-77
2022/04/05 12:03:05;;;;;;;;;11.00;9.00;;;;;12.58;76.58;100921.88;5058116;28;45473;-77
2022/04/05 12:05:44;;;;;;;;;8.25;8.25;;;;;12.68;76.52;100931.19;5057906;28;45330;-78
2022/04/05 12:08:12;;;;;;;;;9.25;7.50;;;;;12.60;76.85;100928.91;5058484;28;45331;-77
2022/04/05 12:10:38;;;;;;;;;8.00;8.00;;;;;12.72;76.27;100922.03;5058554;28;45503;-78
2022/04/05 12:13:03;;;;;;;;;12.00;10.75;;;;;12.78;76.17;100919.00;5057844;28;45504;-78
2022/04/05 12:15:30;;;;;;;;;9.25;9.25;;;;;12.72;76.13;100925.59;5058101;28;46340;-77
2022/04/05 12:18:18;;;;;;;;;8.75;8.75;;;;;12.76;75.61;100929.00;5057681;28;45329;-78
2022/04/05 12:21:06;;;;;;;;;9.50;5.00;;;;;12.77;76.07;100936.09;5057989;28;45264;-78
2022/04/05 12:23:35;;;;;;;;;7.25;7.25;;;;;12.84;76.12;100930.31;5061441;28;45338;-76
2022/04/05 12:26:09;;;;;;;;;7.00;7.00;;;;;12.87;75.81;100938.22;5064070;28;46954;-77
2022/04/05 12:28:47;;;;;;;;;10.00;6.50;;;;;12.73;75.86;100924.63;5083000;28;45341;-77
2022/04/05 12:31:17;;;;;;;;;11.00;9.00;;;;;12.67;76.10;100919.59;5080413;28;45169;-78
2022/04/05 12:34:05;;;;;;;;;8.75;8.75;;;;;12.81;76.05;100930.50;5060587;28;45551;-77
2022/04/05 12:36:43;;;;;;;;;9.00;9.00;;;;;12.81;75.95;100927.81;5060606;28;46322;-78
2022/04/05 12:39:20;;;;;;;;;6.50;6.25;;;;;12.86;75.66;100927.53;5061202;28;45284;-77
2022/04/05 12:41:51;;;;;;;;;8.25;8.25;;;;;12.81;75.70;100908.97;5061025;28;45644;-78
2022/04/05 12:44:22;;;;;;;;;5.50;4.00;;;;;12.95;75.51;100927.06;5061167;28;45224;-77
2022/04/05 12:46:47;;;;;;;;;13.25;9.75;;;;;12.99;75.39;100928.66;5060647;28;46091;-78
2022/04/05 12:49:38;;;;;;;;;9.75;6.00;;;;;12.99;75.68;100928.66;5059072;28;45482;-77
2022/04/05 12:52:21;;;;;;;;;8.50;6.75;;;;;12.83;76.07;100909.75;5057820;28;45371;-77
2022/04/05 12:54:53;;;;;;;;;10.00;9.00;;;;;12.92;75.38;100905.72;5045359;28;45346;-77
2022/04/05 12:57:24;;;;;;;;;6.75;3.00;;;;;12.95;75.37;100929.75;5038898;28;46617;-77
2022/04/05 12:59:52;;;;;;;;;10.25;8.00;;;;;12.92;75.68;100924.56;5038746;28;45389;-77
2022/04/05 13:02:25;;;;;;;;;10.75;9.50;;;;;13.01;74.98;100913.31;5002629;28;45417;-78
2022/04/05 13:06:19;;;;;;;;;9.50;9.50;;;;;13.07;75.05;100918.34;5037098;28;45498;-79
2022/04/05 13:07:50;;;;;;;;;13.75;11.50;;;;;13.17;75.26;100925.03;5036737;28;45477;-78
2022/04/05 13:10:16;;;;;;;;;11.25;9.75;;;;;13.18;75.00;100915.97;5036278;28;45502;-76
2022/04/05 13:12:41;;;;;;;;;10.75;8.25;;;;;13.12;75.28;100913.56;5037196;28;45394;-78
2022/04/05 13:15:11;;;;;;;;;12.00;9.75;;;;;13.16;75.36;100906.25;5036534;28;45645;-77
2022/04/05 13:17:37;;;;;;;;;14.00;10.00;;;;;13.19;75.44;100898.88;5036808;28;46639;-78
2022/04/05 13:20:07;;;;;;;;;9.00;7.75;;;;;13.27;75.00;100908.38;5036526;28;45328;-78
2022/04/05 13:22:33;;;;;;;;;18.75;9.75;;;;;13.16;75.49;100888.28;5036966;28;45527;-78
2022/04/05 13:24:59;;;;;;;;;8.50;8.50;;;;;13.20;75.17;100897.03;5036009;28;45491;-79
2022/04/05 13:27:25;;;;;;;;;12.00;9.75;;;;;13.22;75.72;100906.78;5049220;28;45390;-78
2022/04/05 13:29:50;;;;;;;;;7.00;7.00;;;;;13.26;75.69;100891.34;5056840;28;45242;-78
2022/04/05 13:32:18;;;;;;;;;7.25;7.25;;;;;13.21;75.30;100888.88;5065835;28;45499;-78
2022/04/05 13:34:45;;;;;;;;;10.00;10.00;;;;;13.28;75.04;100878.66;5076673;28;45467;-76
2022/04/05 13:37:17;;;;;;;;;9.00;9.00;;;;;13.17;75.06;100855.03;5077093;28;46647;-78
2022/04/05 13:39:53;;;;;;;;;13.50;11.00;;;;;13.39;74.75;100875.38;5076721;28;45420;-77
2022/04/05 13:42:20;;;;;;;;;10.75;9.75;;;;;13.49;74.75;100876.59;5077000;28;45317;-78
2022/04/05 13:44:46;;;;;;;;;10.75;8.25;;;;;13.54;74.00;100879.91;5076998;28;45377;-78
2022/04/05 13:47:12;;;;;;;;;7.25;7.25;;;;;13.58;73.79;100871.56;5076704;28;45375;-76
2022/04/05 13:49:39;;;;;;;;;7.00;5.75;;;;;13.68;73.44;100858.47;5077001;28;45340;-77
2022/04/05 13:52:04;;;;;;;;;7.50;7.00;;;;;13.69;72.93;100876.38;5076968;28;45544;-78
2022/04/05 13:54:32;;;;;;;;;7.00;6.50;;;;;13.69;72.92;100872.81;5065585;28;46510;-77
2022/04/05 13:56:59;;;;;;;;;9.75;6.00;;;;;13.72;72.73;100861.81;5056694;28;47564;-79
2022/04/05 13:59:24;;;;;;;;;6.00;6.00;;;;;13.84;72.45;100851.22;5057244;28;45313;-78
2022/04/05 14:01:50;;;;;;;;;9.50;9.25;;;;;13.87;72.19;100853.72;5058145;28;46060;-77
2022/04/05 14:04:15;;;;;;;;;12.00;9.50;;;;;13.93;72.31;100866.88;5076619;28;45338;-77
2022/04/05 14:06:40;;;;;;;;;8.75;7.00;;;;;13.87;72.33;100856.41;5060183;28;45342;-76
2022/04/05 14:09:07;;;;;;;;;9.50;7.25;;;;;13.91;72.01;100859.81;5056225;28;45386;-77
2022/04/05 14:11:33;;;;;;;;;6.25;6.00;;;;;13.78;72.79;100848.88;5056353;28;45371;-77
2022/04/05 14:14:00;;;;;;;;;9.25;8.00;;;;;13.75;72.71;100857.16;5056303;28;45422;-79
2022/04/05 14:16:27;;;;;;;;;7.25;7.25;;;;;13.71;72.87;100855.56;5055685;28;45564;-78
2022/04/05 14:18:53;;;;;;;;;12.50;8.75;;;;;13.71;73.09;100854.69;5055574;28;45426;-77
2022/04/05 14:21:25;;;;;;;;;9.00;6.75;;;;;13.60;73.55;100840.03;5055579;28;45343;-77
2022/04/05 14:23:51;;;;;;;;;15.50;9.50;;;;;13.56;73.66;100834.91;5055341;28;45291;-78
2022/04/05 14:26:16;;;;;;;;;7.50;5.00;;;;;13.50;73.73;100841.50;5059183;28;46311;-78
2022/04/05 14:28:42;;;;;;;;;8.75;7.25;;;;;13.49;74.28;100844.28;5076089;28;45373;-77
2022/04/05 14:31:09;;;;;;;;;7.00;7.00;;;;;13.62;73.97;100834.53;5076087;28;45294;-77
2022/04/05 14:33:35;;;;;;;;;12.25;8.50;;;;;13.71;73.63;100825.94;5076069;28;45309;-76
2022/04/05 14:36:01;;;;;;;;;11.50;9.50;;;;;13.81;72.80;100813.66;5075779;28;46373;-78
2022/04/05 14:38:26;;;;;;;;;9.25;9.00;;;;;13.98;72.45;100810.84;5075837;28;45218;-77
2022/04/05 14:40:51;;;;;;;;;16.25;10.00;;;;;14.09;71.88;100818.31;5075707;28;45357;-78
2022/04/05 14:43:17;;;;;;;;;9.25;8.25;;;;;14.05;71.49;100805.09;5081024;28;45456;-78
2022/04/05 14:45:42;;;;;;;;;8.75;8.75;;;;;14.18;70.83;100820.47;5077772;28;45386;-77
2022/04/05 14:48:08;;;;;;;;;7.25;7.25;;;;;14.41;69.96;100807.47;5076950;28;45185;-77
2022/04/05 14:50:34;;;;;;;;;8.50;8.50;;;;;14.62;68.96;100811.56;5074780;28;45346;-76
2022/04/05 14:52:59;;;;;;;;;16.25;11.00;;;;;14.79;68.47;100810.50;5076514;28;45997;-76
2022/04/05 14:55:26;;;;;;;;;10.00;7.25;;;;;14.84;67.80;100806.56;5057984;28;46311;-77
2022/04/05 14:57:52;;;;;;;;;10.75;7.25;;;;;14.85;67.33;100808.28;5055454;28;45342;-75
2022/04/05 15:00:18;;;;;;;;;10.00;9.75;;;;;14.81;67.63;100811.25;5055399;28;45393;-78
2022/04/05 15:02:45;;;;;;;;;12.00;6.75;;;;;14.81;67.64;100808.56;5065812;28;45425;-77
2022/04/05 15:05:13;;;;;;;;;11.00;9.25;;;;;14.37;68.15;100763.59;5071857;28;46326;-77
2022/04/05 15:07:39;;;;;;;;;7.25;7.00;;;;;14.54;68.07;100790.44;5055498;28;45473;-77
2022/04/05 15:10:05;;;;;;;;;15.25;10.50;;;;;14.59;68.32;100803.63;5055079;28;45304;-78
2022/04/05 15:12:31;;;;;;;;;10.50;9.75;;;;;14.60;67.90;100790.06;5055326;28;45544;-78
2022/04/05 15:14:57;;;;;;;;;9.00;7.25;;;;;14.49;68.18;100803.34;5054915;28;45449;-78
2022/04/05 15:17:22;;;;;;;;;9.50;9.00;;;;;14.45;68.58;100793.72;5055215;28;45453;-77
2022/04/05 15:19:48;;;;;;;;;11.75;11.25;;;;;14.42;68.21;100788.50;5055589;28;45359;-78
2022/04/05 15:22:14;;;;;;;;;9.75;9.75;;;;;14.34;68.54;100777.28;5055398;28;45477;-77
2022/04/05 15:24:40;;;;;;;;;10.25;9.25;;;;;14.34;68.54;100782.66;5055233;28;45378;-79
2022/04/05 15:27:07;;;;;;;;;11.25;10.25;;;;;14.25;68.23;100769.72;5064675;28;45501;-78
2022/04/05 15:29:37;;;;;;;;;10.50;8.25;;;;;14.29;68.67;100772.13;5041134;28;45351;-84
2022/04/05 15:32:05;;;;;;;;;11.25;7.75;;;;;14.39;68.27;100776.03;5054865;28;45398;-82
2022/04/05 15:34:31;;;;;;;;;11.25;10.00;;;;;14.34;68.38;100780.84;5054834;28;46300;-77
2022/04/05 15:36:56;;;;;;;;;9.75;7.50;;;;;14.44;68.16;100781.19;5054941;28;45239;-78
2022/04/05 15:39:22;;;;;;;;;10.50;8.75;;;;;14.47;68.21;100778.28;5055402;28;45491;-78
2022/04/05 15:41:49;;;;;;;;;9.50;7.00;;;;;14.41;67.73;100764.31;5054961;28;45347;-78
2022/04/05 15:44:16;;;;;;;;;8.00;7.25;;;;;14.31;68.10;100758.56;5054167;28;45377;-76
2022/04/05 15:46:42;;;;;;;;;10.25;8.50;;;;;14.30;68.15;100773.00;5054431;28;45333;-74
2022/04/05 15:49:08;;;;;;;;;12.50;9.75;;;;;14.26;68.30;100776.88;5054318;28;45459;-74
2022/04/05 15:51:33;;;;;;;;;14.50;9.25;;;;;14.27;68.64;100773.22;5055053;28;45392;-77
2022/04/05 15:53:59;;;;;;;;;10.75;9.25;;;;;14.33;68.26;100773.69;5053671;28;45298;-77
2022/04/05 15:56:24;;;;;;;;;10.00;8.75;;;;;14.31;68.37;100767.53;5052393;28;45401;-76
2022/04/05 15:58:49;;;;;;;;;5.50;5.25;;;;;14.26;68.00;100761.56;5053806;28;45365;-76